WY50 weather

Cheyenne Echo Heliport
Cheyenne, Wyoming, United States

Public forecast

Using degrees Fahrenheit for public forecast. Weather courtesy of forecast.io.

Closest aviation weather report (METAR) to Cheyenne Echo Heliport

Closest report is Cheyenne Regional Jerry Olson Field, 0.1 nm (0.2 km) S. Retrieved 2019/10/14 19:53 UTC (28 minutes ago):

KCYS 141953Z 27013G25KT 10SM CLR 19/M17 A2993 RMK AO2 PK WND 28029/1935 SLP082 T01941167

Closest aviation forecast (TAF) to Cheyenne Echo Heliport

Closest forecast is Cheyenne Regional Jerry Olson Field, 0.1 nm (0.2 km) S. Retrieved 2019/10/14 18:22 UTC (2 hours ago):

TAF KCYS 141720Z 1418/1518 28015G25KT P6SM SKC FM150100 30010KT P6SM SKC FM150400 34009KT P6SM SKC